sensor_id;sensor_type;location;lat;lon;timestamp;P1;durP1;ratioP1;P2;durP2;ratioP2
22289;SDS011;11313;50.116;8.424;2022-11-02T00:00:28;3.80;;;2.60;;
22289;SDS011;11313;50.116;8.424;2022-11-02T00:02:54;2.20;;;1.95;;
22289;SDS011;11313;50.116;8.424;2022-11-02T00:05:20;2.08;;;1.83;;
22289;SDS011;11313;50.116;8.424;2022-11-02T00:07:49;3.33;;;3.03;;
22289;SDS011;11313;50.116;8.424;2022-11-02T00:10:15;3.83;;;2.10;;
22289;SDS011;11313;50.116;8.424;2022-11-02T00:12:42;2.95;;;2.40;;
22289;SDS011;11313;50.116;8.424;2022-11-02T00:15:08;2.60;;;2.20;;
22289;SDS011;11313;50.116;8.424;2022-11-02T00:17:34;2.70;;;2.25;;
22289;SDS011;11313;50.116;8.424;2022-11-02T00:20:00;3.53;;;2.92;;
22289;SDS011;11313;50.116;8.424;2022-11-02T00:22:27;3.30;;;3.00;;
22289;SDS011;11313;50.116;8.424;2022-11-02T00:24:53;2.42;;;2.00;;
22289;SDS011;11313;50.116;8.424;2022-11-02T00:27:20;2.50;;;2.30;;
22289;SDS011;11313;50.116;8.424;2022-11-02T00:29:47;3.00;;;2.80;;
22289;SDS011;11313;50.116;8.424;2022-11-02T00:32:13;2.30;;;2.10;;
22289;SDS011;11313;50.116;8.424;2022-11-02T00:34:38;3.72;;;3.42;;
22289;SDS011;11313;50.116;8.424;2022-11-02T00:37:04;2.20;;;1.90;;
22289;SDS011;11313;50.116;8.424;2022-11-02T00:39:29;3.83;;;3.40;;
22289;SDS011;11313;50.116;8.424;2022-11-02T00:41:55;2.85;;;2.10;;
22289;SDS011;11313;50.116;8.424;2022-11-02T00:44:21;2.40;;;2.20;;
22289;SDS011;11313;50.116;8.424;2022-11-02T00:46:46;2.50;;;2.30;;
22289;SDS011;11313;50.116;8.424;2022-11-02T00:49:12;2.50;;;2.30;;
22289;SDS011;11313;50.116;8.424;2022-11-02T00:51:37;3.17;;;2.80;;
22289;SDS011;11313;50.116;8.424;2022-11-02T00:54:03;2.58;;;2.38;;
22289;SDS011;11313;50.116;8.424;2022-11-02T00:56:28;2.47;;;2.00;;
22289;SDS011;11313;50.116;8.424;2022-11-02T00:58:54;1.80;;;1.70;;
22289;SDS011;11313;50.116;8.424;2022-11-02T01:01:19;2.17;;;1.88;;
22289;SDS011;11313;50.116;8.424;2022-11-02T01:03:44;2.67;;;2.47;;
22289;SDS011;11313;50.116;8.424;2022-11-02T01:06:11;2.40;;;2.10;;
22289;SDS011;11313;50.116;8.424;2022-11-02T01:08:38;2.50;;;2.30;;
22289;SDS011;11313;50.116;8.424;2022-11-02T01:11:15;1999.90;;;946.33;;
22289;SDS011;11313;50.116;8.424;2022-11-02T01:13:42;7.05;;;6.53;;
22289;SDS011;11313;50.116;8.424;2022-11-02T01:16:08;6.35;;;5.95;;
22289;SDS011;11313;50.116;8.424;2022-11-02T01:18:34;2.90;;;2.05;;
22289;SDS011;11313;50.116;8.424;2022-11-02T01:21:00;2.70;;;2.50;;
22289;SDS011;11313;50.116;8.424;2022-11-02T01:23:26;2.90;;;2.60;;
22289;SDS011;11313;50.116;8.424;2022-11-02T01:25:54;2.40;;;1.95;;
22289;SDS011;11313;50.116;8.424;2022-11-02T01:28:20;2.45;;;2.22;;
22289;SDS011;11313;50.116;8.424;2022-11-02T01:30:46;6.97;;;6.53;;
22289;SDS011;11313;50.116;8.424;2022-11-02T01:33:12;8.57;;;8.02;;
22289;SDS011;11313;50.116;8.424;2022-11-02T01:35:38;5.00;;;4.60;;
22289;SDS011;11313;50.116;8.424;2022-11-02T01:38:03;8.38;;;7.88;;
22289;SDS011;11313;50.116;8.424;2022-11-02T01:40:36;2.97;;;2.78;;
22289;SDS011;11313;50.116;8.424;2022-11-02T01:43:19;2.72;;;2.20;;
22289;SDS011;11313;50.116;8.424;2022-11-02T01:45:45;2.80;;;2.20;;
22289;SDS011;11313;50.116;8.424;2022-11-02T01:48:11;4.35;;;4.03;;
22289;SDS011;11313;50.116;8.424;2022-11-02T01:50:37;2.38;;;1.90;;
22289;SDS011;11313;50.116;8.424;2022-11-02T01:53:03;4.43;;;4.07;;
22289;SDS011;11313;50.116;8.424;2022-11-02T01:55:30;2.50;;;2.30;;
22289;SDS011;11313;50.116;8.424;2022-11-02T01:58:01;9.65;;;9.05;;
22289;SDS011;11313;50.116;8.424;2022-11-02T02:00:32;2.75;;;2.42;;
22289;SDS011;11313;50.116;8.424;2022-11-02T02:03:07;3.05;;;2.85;;
22289;SDS011;11313;50.116;8.424;2022-11-02T02:05:33;2.83;;;2.63;;
22289;SDS011;11313;50.116;8.424;2022-11-02T02:08:04;2.17;;;1.98;;
22289;SDS011;11313;50.116;8.424;2022-11-02T02:10:32;2.20;;;2.00;;
22289;SDS011;11313;50.116;8.424;2022-11-02T02:12:57;2.58;;;2.38;;
22289;SDS011;11313;50.116;8.424;2022-11-02T02:15:24;1.95;;;1.73;;
22289;SDS011;11313;50.116;8.424;2022-11-02T02:17:59;3.25;;;2.80;;
22289;SDS011;11313;50.116;8.424;2022-11-02T02:23:12;2.40;;;2.20;;
22289;SDS011;11313;50.116;8.424;2022-11-02T02:28:42;2.38;;;2.17;;
22289;SDS011;11313;50.116;8.424;2022-11-02T02:31:33;2.63;;;2.42;;
22289;SDS011;11313;50.116;8.424;2022-11-02T02:34:22;2.70;;;2.50;;
22289;SDS011;11313;50.116;8.424;2022-11-02T02:36:56;2.40;;;2.20;;
22289;SDS011;11313;50.116;8.424;2022-11-02T02:39:39;2.20;;;2.00;;
22289;SDS011;11313;50.116;8.424;2022-11-02T02:42:11;1.90;;;1.80;;
22289;SDS011;11313;50.116;8.424;2022-11-02T02:44:59;3.67;;;3.38;;
22289;SDS011;11313;50.116;8.424;2022-11-02T02:47:36;2.63;;;2.42;;
22289;SDS011;11313;50.116;8.424;2022-11-02T02:50:19;2.10;;;1.90;;
22289;SDS011;11313;50.116;8.424;2022-11-02T02:52:49;1.88;;;1.70;;
22289;SDS011;11313;50.116;8.424;2022-11-02T02:55:17;2.42;;;1.98;;
22289;SDS011;11313;50.116;8.424;2022-11-02T02:57:46;2.10;;;1.80;;
22289;SDS011;11313;50.116;8.424;2022-11-02T03:00:14;2.05;;;1.85;;
22289;SDS011;11313;50.116;8.424;2022-11-02T03:02:41;1.60;;;1.50;;
22289;SDS011;11313;50.116;8.424;2022-11-02T03:05:25;2.65;;;2.45;;
22289;SDS011;11313;50.116;8.424;2022-11-02T03:08:06;1.98;;;1.55;;
22289;SDS011;11313;50.116;8.424;2022-11-02T03:10:47;3.33;;;3.03;;
22289;SDS011;11313;50.116;8.424;2022-11-02T03:13:39;2.28;;;2.00;;
22289;SDS011;11313;50.116;8.424;2022-11-02T03:19:06;10.75;;;10.10;;
22289;SDS011;11313;50.116;8.424;2022-11-02T03:21:42;4.82;;;4.53;;
22289;SDS011;11313;50.116;8.424;2022-11-02T03:24:13;1908.68;;;995.97;;
22289;SDS011;11313;50.116;8.424;2022-11-02T03:26:46;1401.10;;;999.90;;
22289;SDS011;11313;50.116;8.424;2022-11-02T03:29:25;435.48;;;406.10;;
22289;SDS011;11313;50.116;8.424;2022-11-02T03:32:06;82.18;;;77.20;;
22289;SDS011;11313;50.116;8.424;2022-11-02T03:34:40;8.38;;;7.88;;
22289;SDS011;11313;50.116;8.424;2022-11-02T03:39:45;3.00;;;2.65;;
22289;SDS011;11313;50.116;8.424;2022-11-02T03:42:17;5.60;;;5.20;;
22289;SDS011;11313;50.116;8.424;2022-11-02T03:44:48;27.92;;;26.27;;
22289;SDS011;11313;50.116;8.424;2022-11-02T03:47:18;1999.90;;;926.58;;
22289;SDS011;11313;50.116;8.424;2022-11-02T03:49:44;1359.18;;;997.75;;
22289;SDS011;11313;50.116;8.424;2022-11-02T03:52:15;906.42;;;816.85;;
22289;SDS011;11313;50.116;8.424;2022-11-02T03:55:04;444.50;;;413.10;;
22289;SDS011;11313;50.116;8.424;2022-11-02T03:57:35;161.05;;;151.45;;
22289;SDS011;11313;50.116;8.424;2022-11-02T04:00:07;1999.90;;;999.90;;
22289;SDS011;11313;50.116;8.424;2022-11-02T04:02:35;1341.35;;;886.15;;
22289;SDS011;11313;50.116;8.424;2022-11-02T04:05:02;58.50;;;55.13;;
22289;SDS011;11313;50.116;8.424;2022-11-02T04:07:29;14.10;;;13.23;;
22289;SDS011;11313;50.116;8.424;2022-11-02T04:10:18;324.77;;;303.23;;
22289;SDS011;11313;50.116;8.424;2022-11-02T04:12:44;24.33;;;22.50;;
22289;SDS011;11313;50.116;8.424;2022-11-02T04:15:28;80.28;;;75.65;;
22289;SDS011;11313;50.116;8.424;2022-11-02T04:17:53;97.47;;;90.07;;
22289;SDS011;11313;50.116;8.424;2022-11-02T04:20:37;43.47;;;40.92;;
22289;SDS011;11313;50.116;8.424;2022-11-02T04:23:03;116.82;;;109.93;;
22289;SDS011;11313;50.116;8.424;2022-11-02T04:25:51;214.77;;;200.55;;
22289;SDS011;11313;50.116;8.424;2022-11-02T04:28:17;160.00;;;150.57;;
22289;SDS011;11313;50.116;8.424;2022-11-02T04:30:43;15.75;;;14.82;;
22289;SDS011;11313;50.116;8.424;2022-11-02T04:33:08;3.33;;;3.03;;
22289;SDS011;11313;50.116;8.424;2022-11-02T04:35:52;2.92;;;2.70;;
22289;SDS011;11313;50.116;8.424;2022-11-02T04:38:18;4.68;;;4.38;;
22289;SDS011;11313;50.116;8.424;2022-11-02T04:41:02;3.45;;;3.15;;
22289;SDS011;11313;50.116;8.424;2022-11-02T04:43:46;2.85;;;2.50;;
22289;SDS011;11313;50.116;8.424;2022-11-02T04:46:11;3.60;;;3.33;;
22289;SDS011;11313;50.116;8.424;2022-11-02T04:48:36;2.85;;;2.65;;
22289;SDS011;11313;50.116;8.424;2022-11-02T04:51:02;2.65;;;2.45;;
22289;SDS011;11313;50.116;8.424;2022-11-02T04:53:28;2.80;;;2.53;;
22289;SDS011;11313;50.116;8.424;2022-11-02T04:55:53;2.80;;;2.30;;
22289;SDS011;11313;50.116;8.424;2022-11-02T04:58:19;20.45;;;19.17;;
22289;SDS011;11313;50.116;8.424;2022-11-02T05:00:44;5.57;;;5.18;;
22289;SDS011;11313;50.116;8.424;2022-11-02T05:03:09;2.30;;;2.10;;
22289;SDS011;11313;50.116;8.424;2022-11-02T05:05:35;2.45;;;2.25;;
22289;SDS011;11313;50.116;8.424;2022-11-02T05:08:00;2.70;;;2.50;;
22289;SDS011;11313;50.116;8.424;2022-11-02T05:10:26;2.70;;;2.50;;
22289;SDS011;11313;50.116;8.424;2022-11-02T05:12:55;2.42;;;2.22;;
22289;SDS011;11313;50.116;8.424;2022-11-02T05:15:22;2.70;;;2.50;;
22289;SDS011;11313;50.116;8.424;2022-11-02T05:17:48;2.90;;;2.70;;
22289;SDS011;11313;50.116;8.424;2022-11-02T05:20:13;3.53;;;3.22;;
22289;SDS011;11313;50.116;8.424;2022-11-02T05:22:42;3.63;;;3.33;;
22289;SDS011;11313;50.116;8.424;2022-11-02T05:25:08;4.07;;;3.78;;
22289;SDS011;11313;50.116;8.424;2022-11-02T05:27:34;985.55;;;572.47;;
22289;SDS011;11313;50.116;8.424;2022-11-02T05:30:00;63.50;;;59.60;;
22289;SDS011;11313;50.116;8.424;2022-11-02T05:32:26;2.90;;;2.70;;
22289;SDS011;11313;50.116;8.424;2022-11-02T05:34:52;1531.72;;;999.90;;
22289;SDS011;11313;50.116;8.424;2022-11-02T05:37:17;1846.07;;;871.38;;
22289;SDS011;11313;50.116;8.424;2022-11-02T05:39:43;1585.75;;;858.35;;
22289;SDS011;11313;50.116;8.424;2022-11-02T05:42:09;1326.55;;;822.88;;
22289;SDS011;11313;50.116;8.424;2022-11-02T05:44:34;580.50;;;536.15;;
22289;SDS011;11313;50.116;8.424;2022-11-02T05:47:00;125.70;;;118.47;;
22289;SDS011;11313;50.116;8.424;2022-11-02T05:49:26;327.63;;;303.83;;
22289;SDS011;11313;50.116;8.424;2022-11-02T05:51:51;1185.28;;;844.63;;
22289;SDS011;11313;50.116;8.424;2022-11-02T05:54:17;368.88;;;341.75;;
22289;SDS011;11313;50.116;8.424;2022-11-02T05:56:42;9.48;;;8.90;;
22289;SDS011;11313;50.116;8.424;2022-11-02T05:59:08;2.28;;;1.95;;
22289;SDS011;11313;50.116;8.424;2022-11-02T06:01:34;2.45;;;2.25;;
22289;SDS011;11313;50.116;8.424;2022-11-02T06:03:59;3.30;;;3.10;;
22289;SDS011;11313;50.116;8.424;2022-11-02T06:06:25;3.55;;;3.30;;
22289;SDS011;11313;50.116;8.424;2022-11-02T06:08:50;3.00;;;2.70;;
22289;SDS011;11313;50.116;8.424;2022-11-02T06:11:16;2.83;;;2.63;;
22289;SDS011;11313;50.116;8.424;2022-11-02T06:13:42;6.75;;;6.35;;
22289;SDS011;11313;50.116;8.424;2022-11-02T06:16:08;13.23;;;12.35;;
22289;SDS011;11313;50.116;8.424;2022-11-02T06:18:35;6.90;;;6.45;;
22289;SDS011;11313;50.116;8.424;2022-11-02T06:21:02;5.60;;;5.20;;
22289;SDS011;11313;50.116;8.424;2022-11-02T06:23:27;5.18;;;4.78;;
22289;SDS011;11313;50.116;8.424;2022-11-02T06:25:54;32.80;;;30.77;;
22289;SDS011;11313;50.116;8.424;2022-11-02T06:28:21;2.10;;;1.90;;
22289;SDS011;11313;50.116;8.424;2022-11-02T06:30:47;2.60;;;2.40;;
22289;SDS011;11313;50.116;8.424;2022-11-02T06:33:16;2.97;;;2.78;;
22289;SDS011;11313;50.116;8.424;2022-11-02T06:35:45;3.08;;;2.83;;
22289;SDS011;11313;50.116;8.424;2022-11-02T06:38:11;4.20;;;3.90;;
22289;SDS011;11313;50.116;8.424;2022-11-02T06:40:37;3.13;;;2.83;;
22289;SDS011;11313;50.116;8.424;2022-11-02T06:43:03;5.40;;;4.82;;
22289;SDS011;11313;50.116;8.424;2022-11-02T06:45:28;29.60;;;27.88;;
22289;SDS011;11313;50.116;8.424;2022-11-02T06:47:54;3.58;;;2.95;;
22289;SDS011;11313;50.116;8.424;2022-11-02T06:50:19;3.92;;;3.63;;
22289;SDS011;11313;50.116;8.424;2022-11-02T06:52:46;5.70;;;3.60;;
22289;SDS011;11313;50.116;8.424;2022-11-02T06:55:12;2.90;;;2.60;;
22289;SDS011;11313;50.116;8.424;2022-11-02T06:57:39;18.90;;;17.85;;
22289;SDS011;11313;50.116;8.424;2022-11-02T07:00:06;2.63;;;2.40;;
22289;SDS011;11313;50.116;8.424;2022-11-02T07:02:35;5.37;;;4.93;;
22289;SDS011;11313;50.116;8.424;2022-11-02T07:05:00;6.63;;;6.13;;
22289;SDS011;11313;50.116;8.424;2022-11-02T07:07:26;13.40;;;12.57;;
22289;SDS011;11313;50.116;8.424;2022-11-02T07:09:52;3.13;;;2.70;;
22289;SDS011;11313;50.116;8.424;2022-11-02T07:12:17;2.72;;;2.15;;
22289;SDS011;11313;50.116;8.424;2022-11-02T07:14:43;3.20;;;2.90;;
22289;SDS011;11313;50.116;8.424;2022-11-02T07:17:09;2.53;;;2.33;;
22289;SDS011;11313;50.116;8.424;2022-11-02T07:19:34;3.75;;;3.45;;
22289;SDS011;11313;50.116;8.424;2022-11-02T07:22:00;89.82;;;84.38;;
22289;SDS011;11313;50.116;8.424;2022-11-02T07:24:26;3.67;;;3.20;;
22289;SDS011;11313;50.116;8.424;2022-11-02T07:26:51;2.42;;;2.22;;
22289;SDS011;11313;50.116;8.424;2022-11-02T07:29:17;3.10;;;2.05;;
22289;SDS011;11313;50.116;8.424;2022-11-02T07:31:43;3.30;;;3.00;;
22289;SDS011;11313;50.116;8.424;2022-11-02T07:34:09;2.60;;;2.00;;
22289;SDS011;11313;50.116;8.424;2022-11-02T07:36:35;2.65;;;2.45;;
22289;SDS011;11313;50.116;8.424;2022-11-02T07:39:00;7.50;;;7.05;;
22289;SDS011;11313;50.116;8.424;2022-11-02T07:41:26;3.70;;;3.40;;
22289;SDS011;11313;50.116;8.424;2022-11-02T07:43:52;5.50;;;4.20;;
22289;SDS011;11313;50.116;8.424;2022-11-02T07:46:17;2.85;;;2.65;;
22289;SDS011;11313;50.116;8.424;2022-11-02T07:48:43;10.35;;;9.73;;
22289;SDS011;11313;50.116;8.424;2022-11-02T07:51:08;4.57;;;4.18;;
22289;SDS011;11313;50.116;8.424;2022-11-02T07:53:35;3.40;;;3.10;;
22289;SDS011;11313;50.116;8.424;2022-11-02T07:56:01;3.15;;;2.78;;
22289;SDS011;11313;50.116;8.424;2022-11-02T07:58:28;2.78;;;2.50;;
22289;SDS011;11313;50.116;8.424;2022-11-02T08:00:55;4.68;;;4.28;;
22289;SDS011;11313;50.116;8.424;2022-11-02T08:03:21;4.80;;;4.40;;
22289;SDS011;11313;50.116;8.424;2022-11-02T08:05:47;2.58;;;2.38;;
22289;SDS011;11313;50.116;8.424;2022-11-02T08:08:13;2.65;;;2.22;;
22289;SDS011;11313;50.116;8.424;2022-11-02T08:10:42;3.40;;;3.10;;
22289;SDS011;11313;50.116;8.424;2022-11-02T08:13:09;2.97;;;2.78;;
22289;SDS011;11313;50.116;8.424;2022-11-02T08:15:37;2.83;;;2.53;;
22289;SDS011;11313;50.116;8.424;2022-11-02T08:18:04;3.15;;;2.92;;
22289;SDS011;11313;50.116;8.424;2022-11-02T08:20:36;869.53;;;658.25;;
22289;SDS011;11313;50.116;8.424;2022-11-02T08:23:01;532.20;;;493.90;;
22289;SDS011;11313;50.116;8.424;2022-11-02T08:25:27;427.55;;;398.13;;
22289;SDS011;11313;50.116;8.424;2022-11-02T08:27:57;375.40;;;351.10;;
22289;SDS011;11313;50.116;8.424;2022-11-02T08:30:23;11.93;;;10.90;;
22289;SDS011;11313;50.116;8.424;2022-11-02T08:32:49;3.90;;;3.60;;
22289;SDS011;11313;50.116;8.424;2022-11-02T08:35:15;2.30;;;2.10;;
22289;SDS011;11313;50.116;8.424;2022-11-02T08:37:40;4.47;;;4.18;;
22289;SDS011;11313;50.116;8.424;2022-11-02T08:40:06;2.95;;;2.75;;
22289;SDS011;11313;50.116;8.424;2022-11-02T08:42:32;2.70;;;2.50;;
22289;SDS011;11313;50.116;8.424;2022-11-02T08:44:57;2.30;;;1.80;;
22289;SDS011;11313;50.116;8.424;2022-11-02T08:47:23;3.28;;;3.00;;
22289;SDS011;11313;50.116;8.424;2022-11-02T08:49:48;3.30;;;3.00;;
22289;SDS011;11313;50.116;8.424;2022-11-02T08:52:15;3.13;;;2.35;;
22289;SDS011;11313;50.116;8.424;2022-11-02T08:54:42;4.22;;;3.55;;
22289;SDS011;11313;50.116;8.424;2022-11-02T08:57:07;2.50;;;2.30;;
22289;SDS011;11313;50.116;8.424;2022-11-02T08:59:33;6.57;;;6.15;;
22289;SDS011;11313;50.116;8.424;2022-11-02T09:01:59;1.95;;;1.83;;
22289;SDS011;11313;50.116;8.424;2022-11-02T09:04:24;2.65;;;2.40;;
22289;SDS011;11313;50.116;8.424;2022-11-02T09:06:50;2.80;;;2.60;;
22289;SDS011;11313;50.116;8.424;2022-11-02T09:09:15;3.45;;;3.13;;
22289;SDS011;11313;50.116;8.424;2022-11-02T09:11:41;3.95;;;2.60;;
22289;SDS011;11313;50.116;8.424;2022-11-02T09:14:06;9.02;;;8.52;;
22289;SDS011;11313;50.116;8.424;2022-11-02T09:16:32;12.68;;;11.98;;
22289;SDS011;11313;50.116;8.424;2022-11-02T09:18:58;2.42;;;2.22;;
22289;SDS011;11313;50.116;8.424;2022-11-02T09:21:24;4.32;;;3.92;;
22289;SDS011;11313;50.116;8.424;2022-11-02T09:23:49;3.60;;;3.30;;
22289;SDS011;11313;50.116;8.424;2022-11-02T09:26:15;3.03;;;2.00;;
22289;SDS011;11313;50.116;8.424;2022-11-02T09:28:41;2.97;;;2.78;;
22289;SDS011;11313;50.116;8.424;2022-11-02T09:31:06;4.25;;;3.88;;
22289;SDS011;11313;50.116;8.424;2022-11-02T09:33:32;8.85;;;8.25;;
22289;SDS011;11313;50.116;8.424;2022-11-02T09:36:02;13.50;;;12.68;;
22289;SDS011;11313;50.116;8.424;2022-11-02T09:38:29;4.63;;;4.32;;
22289;SDS011;11313;50.116;8.424;2022-11-02T09:46:06;4.60;;;4.30;;
22289;SDS011;11313;50.116;8.424;2022-11-02T09:49:05;6.32;;;5.85;;
22289;SDS011;11313;50.116;8.424;2022-11-02T09:54:21;2.53;;;2.33;;
22289;SDS011;11313;50.116;8.424;2022-11-02T09:56:48;2.67;;;2.42;;
22289;SDS011;11313;50.116;8.424;2022-11-02T09:59:18;4.57;;;4.28;;
22289;SDS011;11313;50.116;8.424;2022-11-02T10:01:54;2.60;;;2.40;;
22289;SDS011;11313;50.116;8.424;2022-11-02T10:10:24;2.08;;;1.88;;
22289;SDS011;11313;50.116;8.424;2022-11-02T10:15:42;5.03;;;4.63;;
22289;SDS011;11313;50.116;8.424;2022-11-02T10:18:16;4.68;;;4.28;;
22289;SDS011;11313;50.116;8.424;2022-11-02T10:20:45;2.22;;;2.03;;
22289;SDS011;11313;50.116;8.424;2022-11-02T10:23:15;2.53;;;2.33;;
22289;SDS011;11313;50.116;8.424;2022-11-02T10:25:49;3.45;;;3.15;;
22289;SDS011;11313;50.116;8.424;2022-11-02T10:28:17;3.13;;;2.88;;
22289;SDS011;11313;50.116;8.424;2022-11-02T10:30:47;6.22;;;5.82;;
22289;SDS011;11313;50.116;8.424;2022-11-02T10:33:16;7.80;;;7.30;;
22289;SDS011;11313;50.116;8.424;2022-11-02T10:35:45;4.53;;;4.10;;
22289;SDS011;11313;50.116;8.424;2022-11-02T10:43:45;7.72;;;7.18;;
22289;SDS011;11313;50.116;8.424;2022-11-02T10:46:25;32.25;;;29.98;;
22289;SDS011;11313;50.116;8.424;2022-11-02T10:52:13;20.02;;;18.83;;
22289;SDS011;11313;50.116;8.424;2022-11-02T10:54:40;8.82;;;8.25;;
22289;SDS011;11313;50.116;8.424;2022-11-02T10:57:10;22.58;;;21.13;;
22289;SDS011;11313;50.116;8.424;2022-11-02T10:59:37;2.78;;;2.10;;
22289;SDS011;11313;50.116;8.424;2022-11-02T11:02:04;3.63;;;3.28;;
22289;SDS011;11313;50.116;8.424;2022-11-02T11:04:37;4.07;;;2.60;;
22289;SDS011;11313;50.116;8.424;2022-11-02T11:07:04;4.20;;;3.03;;
22289;SDS011;11313;50.116;8.424;2022-11-02T11:09:47;3.38;;;2.65;;
22289;SDS011;11313;50.116;8.424;2022-11-02T11:12:16;3.25;;;2.95;;
22289;SDS011;11313;50.116;8.424;2022-11-02T11:14:51;4.38;;;2.60;;
22289;SDS011;11313;50.116;8.424;2022-11-02T11:17:26;6.53;;;6.03;;
22289;SDS011;11313;50.116;8.424;2022-11-02T11:19:57;3.72;;;3.00;;
22289;SDS011;11313;50.116;8.424;2022-11-02T11:22:36;4.38;;;3.15;;
22289;SDS011;11313;50.116;8.424;2022-11-02T11:27:43;51.83;;;12.63;;
22289;SDS011;11313;50.116;8.424;2022-11-02T11:30:22;5.72;;;3.30;;
22289;SDS011;11313;50.116;8.424;2022-11-02T11:32:47;7.53;;;6.35;;
22289;SDS011;11313;50.116;8.424;2022-11-02T11:35:14;22.33;;;20.92;;
22289;SDS011;11313;50.116;8.424;2022-11-02T11:37:49;5.45;;;4.93;;
22289;SDS011;11313;50.116;8.424;2022-11-02T11:40:21;6.97;;;6.28;;
22289;SDS011;11313;50.116;8.424;2022-11-02T11:42:48;6.00;;;5.40;;
22289;SDS011;11313;50.116;8.424;2022-11-02T11:45:22;9.23;;;8.55;;
22289;SDS011;11313;50.116;8.424;2022-11-02T11:47:52;6.00;;;4.97;;
22289;SDS011;11313;50.116;8.424;2022-11-02T11:50:22;3.92;;;2.97;;
22289;SDS011;11313;50.116;8.424;2022-11-02T11:53:05;7.43;;;6.72;;
22289;SDS011;11313;50.116;8.424;2022-11-02T11:55:34;3.88;;;3.50;;
22289;SDS011;11313;50.116;8.424;2022-11-02T11:58:14;4.88;;;4.38;;
22289;SDS011;11313;50.116;8.424;2022-11-02T12:00:41;5.20;;;4.63;;
22289;SDS011;11313;50.116;8.424;2022-11-02T12:03:08;5.82;;;4.30;;
22289;SDS011;11313;50.116;8.424;2022-11-02T12:05:48;5.47;;;4.97;;
22289;SDS011;11313;50.116;8.424;2022-11-02T12:08:27;5.00;;;4.53;;
22289;SDS011;11313;50.116;8.424;2022-11-02T12:11:19;4.57;;;2.70;;
22289;SDS011;11313;50.116;8.424;2022-11-02T12:14:43;5.28;;;4.78;;
22289;SDS011;11313;50.116;8.424;2022-11-02T12:16:58;5.35;;;4.80;;
22289;SDS011;11313;50.116;8.424;2022-11-02T12:24:38;2.53;;;2.15;;
22289;SDS011;11313;50.116;8.424;2022-11-02T12:27:31;4.72;;;3.30;;
22289;SDS011;11313;50.116;8.424;2022-11-02T12:38:15;3.30;;;3.00;;
22289;SDS011;11313;50.116;8.424;2022-11-02T12:43:40;3.20;;;2.42;;
22289;SDS011;11313;50.116;8.424;2022-11-02T12:46:17;5.82;;;5.22;;
22289;SDS011;11313;50.116;8.424;2022-11-02T12:48:59;3.42;;;2.30;;
22289;SDS011;11313;50.116;8.424;2022-11-02T12:51:52;4.80;;;2.90;;
22289;SDS011;11313;50.116;8.424;2022-11-02T12:54:51;2.55;;;2.35;;
22289;SDS011;11313;50.116;8.424;2022-11-02T12:57:23;4.03;;;3.03;;
22289;SDS011;11313;50.116;8.424;2022-11-02T12:59:53;3.90;;;3.45;;
22289;SDS011;11313;50.116;8.424;2022-11-02T13:05:00;6.25;;;5.75;;
22289;SDS011;11313;50.116;8.424;2022-11-02T13:07:32;5.13;;;3.33;;
22289;SDS011;11313;50.116;8.424;2022-11-02T13:10:12;4.15;;;2.25;;
22289;SDS011;11313;50.116;8.424;2022-11-02T13:12:43;2.78;;;2.38;;
22289;SDS011;11313;50.116;8.424;2022-11-02T13:15:12;3.42;;;2.17;;
22289;SDS011;11313;50.116;8.424;2022-11-02T13:17:45;3.15;;;2.80;;
22289;SDS011;11313;50.116;8.424;2022-11-02T13:20:17;3.03;;;2.70;;
22289;SDS011;11313;50.116;8.424;2022-11-02T13:22:53;3.55;;;2.50;;
22289;SDS011;11313;50.116;8.424;2022-11-02T13:25:24;4.78;;;4.40;;
22289;SDS011;11313;50.116;8.424;2022-11-02T13:28:00;5.80;;;5.40;;
22289;SDS011;11313;50.116;8.424;2022-11-02T13:30:29;5.00;;;2.55;;
22289;SDS011;11313;50.116;8.424;2022-11-02T13:33:03;3.22;;;2.40;;
22289;SDS011;11313;50.116;8.424;2022-11-02T13:35:38;2.72;;;2.20;;
22289;SDS011;11313;50.116;8.424;2022-11-02T13:44:18;5.10;;;4.65;;
22289;SDS011;11313;50.116;8.424;2022-11-02T13:47:07;3.40;;;2.28;;
22289;SDS011;11313;50.116;8.424;2022-11-02T13:49:41;2.95;;;2.20;;
22289;SDS011;11313;50.116;8.424;2022-11-02T13:52:13;3.90;;;2.50;;
22289;SDS011;11313;50.116;8.424;2022-11-02T13:54:41;3.85;;;3.55;;
22289;SDS011;11313;50.116;8.424;2022-11-02T13:57:30;4.50;;;4.10;;
22289;SDS011;11313;50.116;8.424;2022-11-02T14:02:52;3.50;;;2.53;;
22289;SDS011;11313;50.116;8.424;2022-11-02T14:05:26;2.15;;;1.95;;
22289;SDS011;11313;50.116;8.424;2022-11-02T14:08:01;2.22;;;1.67;;
22289;SDS011;11313;50.116;8.424;2022-11-02T14:10:30;3.03;;;2.72;;
22289;SDS011;11313;50.116;8.424;2022-11-02T14:13:03;2.70;;;2.20;;
22289;SDS011;11313;50.116;8.424;2022-11-02T14:31:35;2.97;;;2.28;;
22289;SDS011;11313;50.116;8.424;2022-11-02T14:47:57;3.00;;;2.40;;
22289;SDS011;11313;50.116;8.424;2022-11-02T14:50:26;3.95;;;3.65;;
22289;SDS011;11313;50.116;8.424;2022-11-02T14:52:54;2.65;;;1.80;;
22289;SDS011;11313;50.116;8.424;2022-11-02T14:55:32;2.00;;;1.48;;
22289;SDS011;11313;50.116;8.424;2022-11-02T14:58:06;3.35;;;2.70;;
22289;SDS011;11313;50.116;8.424;2022-11-02T15:03:24;4.38;;;4.07;;
22289;SDS011;11313;50.116;8.424;2022-11-02T15:06:00;2.63;;;2.35;;
22289;SDS011;11313;50.116;8.424;2022-11-02T15:08:34;3.83;;;3.53;;
22289;SDS011;11313;50.116;8.424;2022-11-02T15:14:29;3.53;;;3.22;;
22289;SDS011;11313;50.116;8.424;2022-11-02T15:17:00;3.45;;;2.97;;
22289;SDS011;11313;50.116;8.424;2022-11-02T15:19:40;4.90;;;4.60;;
22289;SDS011;11313;50.116;8.424;2022-11-02T15:25:24;3.53;;;3.30;;
22289;SDS011;11313;50.116;8.424;2022-11-02T15:27:56;4.82;;;4.43;;
22289;SDS011;11313;50.116;8.424;2022-11-02T15:30:39;3.78;;;2.90;;
22289;SDS011;11313;50.116;8.424;2022-11-02T15:35:59;3.22;;;2.92;;
22289;SDS011;11313;50.116;8.424;2022-11-02T15:38:26;404.70;;;377.58;;
22289;SDS011;11313;50.116;8.424;2022-11-02T15:46:01;2.47;;;1.92;;
22289;SDS011;11313;50.116;8.424;2022-11-02T15:54:04;2.58;;;2.38;;
22289;SDS011;11313;50.116;8.424;2022-11-02T15:59:24;44.83;;;42.20;;
22289;SDS011;11313;50.116;8.424;2022-11-02T16:02:01;18.17;;;17.02;;
22289;SDS011;11313;50.116;8.424;2022-11-02T16:04:41;2.05;;;1.73;;
22289;SDS011;11313;50.116;8.424;2022-11-02T16:07:11;3.78;;;2.88;;
22289;SDS011;11313;50.116;8.424;2022-11-02T16:09:38;3.80;;;3.40;;
22289;SDS011;11313;50.116;8.424;2022-11-02T16:14:44;4.05;;;3.75;;
22289;SDS011;11313;50.116;8.424;2022-11-02T16:17:30;7.47;;;6.95;;
22289;SDS011;11313;50.116;8.424;2022-11-02T16:20:07;5.82;;;5.32;;
22289;SDS011;11313;50.116;8.424;2022-11-02T16:22:56;18.10;;;17.05;;
22289;SDS011;11313;50.116;8.424;2022-11-02T16:25:28;193.15;;;174.93;;
22289;SDS011;11313;50.116;8.424;2022-11-02T16:30:35;1985.53;;;761.58;;
22289;SDS011;11313;50.116;8.424;2022-11-02T16:33:01;866.25;;;465.38;;
22289;SDS011;11313;50.116;8.424;2022-11-02T16:35:29;1999.90;;;999.90;;
22289;SDS011;11313;50.116;8.424;2022-11-02T16:37:55;463.75;;;418.88;;
22289;SDS011;11313;50.116;8.424;2022-11-02T16:40:20;416.77;;;388.83;;
22289;SDS011;11313;50.116;8.424;2022-11-02T16:42:46;67.55;;;63.55;;
22289;SDS011;11313;50.116;8.424;2022-11-02T16:45:28;294.33;;;275.92;;
22289;SDS011;11313;50.116;8.424;2022-11-02T16:47:59;4.88;;;3.40;;
22289;SDS011;11313;50.116;8.424;2022-11-02T16:50:26;2.75;;;2.20;;
22289;SDS011;11313;50.116;8.424;2022-11-02T16:52:56;158.05;;;148.98;;
22289;SDS011;11313;50.116;8.424;2022-11-02T16:55:44;6.18;;;5.68;;
22289;SDS011;11313;50.116;8.424;2022-11-02T16:58:13;6.55;;;6.00;;
22289;SDS011;11313;50.116;8.424;2022-11-02T17:01:02;2.22;;;2.00;;
22289;SDS011;11313;50.116;8.424;2022-11-02T17:03:31;6.82;;;6.32;;